Terminal Aerodrome Forecast
Issued by NWS Albany, NY

Home | Current Version | Previous Version | Text Only | Print | Product List | Glossary On
Versions: 1 2 3 4 5 6 7 8 9 10 11 12 13 14 15 16 17 18 19
000
FTUS41 KALY 271124
TAFALB
TAF
KALB 271124Z 2712/2812 VRB03KT P6SM FEW060
     FM271600 28008KT P6SM FEW050
     FM272300 VRB03KT P6SM SKC
     FM280300 00000KT P6SM SKC=

USA.gov is the U.S. government's official web portal to all federal, state and local government web resources and services.